sensor_id;sensor_type;location;lat;lon;timestamp;temperature;humidity
20973;DHT22;10645;52.370;13.314;2023-12-28T00:00:38;3.40;99.90
20973;DHT22;10645;52.370;13.314;2023-12-28T00:03:05;3.30;99.90
20973;DHT22;10645;52.370;13.314;2023-12-28T00:05:31;3.30;99.90
20973;DHT22;10645;52.370;13.314;2023-12-28T00:07:57;3.30;99.90
20973;DHT22;10645;52.370;13.314;2023-12-28T00:10:25;3.30;99.90
20973;DHT22;10645;52.370;13.314;2023-12-28T00:12:51;3.40;99.90
20973;DHT22;10645;52.370;13.314;2023-12-28T00:15:17;3.40;99.90
20973;DHT22;10645;52.370;13.314;2023-12-28T00:17:43;3.50;99.90
20973;DHT22;10645;52.370;13.314;2023-12-28T00:20:10;3.60;99.90
20973;DHT22;10645;52.370;13.314;2023-12-28T00:22:36;3.60;99.90
20973;DHT22;10645;52.370;13.314;2023-12-28T00:25:04;3.70;99.90
20973;DHT22;10645;52.370;13.314;2023-12-28T00:27:30;3.60;99.90
20973;DHT22;10645;52.370;13.314;2023-12-28T00:29:58;3.70;99.90
20973;DHT22;10645;52.370;13.314;2023-12-28T00:32:24;3.70;99.90
20973;DHT22;10645;52.370;13.314;2023-12-28T00:34:50;3.70;99.90
20973;DHT22;10645;52.370;13.314;2023-12-28T00:37:16;3.70;99.90
20973;DHT22;10645;52.370;13.314;2023-12-28T00:39:43;3.80;99.90
20973;DHT22;10645;52.370;13.314;2023-12-28T00:42:10;3.80;99.90
20973;DHT22;10645;52.370;13.314;2023-12-28T00:44:36;3.90;99.90
20973;DHT22;10645;52.370;13.314;2023-12-28T00:47:02;3.90;99.90
20973;DHT22;10645;52.370;13.314;2023-12-28T00:49:28;4.00;99.90
20973;DHT22;10645;52.370;13.314;2023-12-28T00:51:54;4.10;99.90
20973;DHT22;10645;52.370;13.314;2023-12-28T00:54:20;4.10;99.90
20973;DHT22;10645;52.370;13.314;2023-12-28T00:56:47;4.10;99.90
20973;DHT22;10645;52.370;13.314;2023-12-28T00:59:13;4.20;99.90
20973;DHT22;10645;52.370;13.314;2023-12-28T01:01:39;4.20;99.90
20973;DHT22;10645;52.370;13.314;2023-12-28T01:04:05;4.30;99.90
20973;DHT22;10645;52.370;13.314;2023-12-28T01:06:31;4.40;99.90
20973;DHT22;10645;52.370;13.314;2023-12-28T01:08:57;4.50;99.90
20973;DHT22;10645;52.370;13.314;2023-12-28T01:11:23;4.50;99.90
20973;DHT22;10645;52.370;13.314;2023-12-28T01:13:51;4.60;99.90
20973;DHT22;10645;52.370;13.314;2023-12-28T01:16:17;4.80;99.90
20973;DHT22;10645;52.370;13.314;2023-12-28T01:18:43;4.90;99.90
20973;DHT22;10645;52.370;13.314;2023-12-28T01:21:09;4.90;99.90
20973;DHT22;10645;52.370;13.314;2023-12-28T01:23:35;4.90;99.90
20973;DHT22;10645;52.370;13.314;2023-12-28T01:26:02;4.90;99.90
20973;DHT22;10645;52.370;13.314;2023-12-28T01:28:28;5.00;99.90
20973;DHT22;10645;52.370;13.314;2023-12-28T01:30:54;4.90;99.90
20973;DHT22;10645;52.370;13.314;2023-12-28T01:33:20;4.90;99.90
20973;DHT22;10645;52.370;13.314;2023-12-28T01:35:46;4.90;99.90
20973;DHT22;10645;52.370;13.314;2023-12-28T01:38:12;4.80;99.90
20973;DHT22;10645;52.370;13.314;2023-12-28T01:40:45;4.80;99.90
20973;DHT22;10645;52.370;13.314;2023-12-28T01:43:11;4.80;99.90
20973;DHT22;10645;52.370;13.314;2023-12-28T01:45:38;4.80;99.90
20973;DHT22;10645;52.370;13.314;2023-12-28T01:48:04;4.70;99.90
20973;DHT22;10645;52.370;13.314;2023-12-28T01:50:31;4.80;99.90
20973;DHT22;10645;52.370;13.314;2023-12-28T01:52:59;4.80;99.90
20973;DHT22;10645;52.370;13.314;2023-12-28T01:55:27;4.90;99.90
20973;DHT22;10645;52.370;13.314;2023-12-28T01:57:55;4.90;99.90
20973;DHT22;10645;52.370;13.314;2023-12-28T02:00:24;5.00;99.90
20973;DHT22;10645;52.370;13.314;2023-12-28T02:02:50;5.20;99.90
20973;DHT22;10645;52.370;13.314;2023-12-28T02:05:17;5.20;99.90
20973;DHT22;10645;52.370;13.314;2023-12-28T02:07:43;5.40;99.90
20973;DHT22;10645;52.370;13.314;2023-12-28T02:10:09;5.40;99.90
20973;DHT22;10645;52.370;13.314;2023-12-28T02:12:35;5.50;99.90
20973;DHT22;10645;52.370;13.314;2023-12-28T02:15:02;5.50;99.90
20973;DHT22;10645;52.370;13.314;2023-12-28T02:17:55;5.60;99.90
20973;DHT22;10645;52.370;13.314;2023-12-28T02:20:24;5.70;99.90
20973;DHT22;10645;52.370;13.314;2023-12-28T02:22:52;5.70;99.90
20973;DHT22;10645;52.370;13.314;2023-12-28T02:25:18;5.80;99.90
20973;DHT22;10645;52.370;13.314;2023-12-28T02:27:46;5.90;99.90
20973;DHT22;10645;52.370;13.314;2023-12-28T02:30:19;5.90;99.90
20973;DHT22;10645;52.370;13.314;2023-12-28T02:35:23;6.10;99.90
20973;DHT22;10645;52.370;13.314;2023-12-28T02:37:52;6.20;99.90
20973;DHT22;10645;52.370;13.314;2023-12-28T02:40:19;6.20;99.90
20973;DHT22;10645;52.370;13.314;2023-12-28T02:42:47;6.40;99.90
20973;DHT22;10645;52.370;13.314;2023-12-28T02:45:13;6.40;99.90
20973;DHT22;10645;52.370;13.314;2023-12-28T02:47:39;6.50;99.90
20973;DHT22;10645;52.370;13.314;2023-12-28T02:50:06;6.60;99.90
20973;DHT22;10645;52.370;13.314;2023-12-28T02:52:32;6.70;99.90
20973;DHT22;10645;52.370;13.314;2023-12-28T02:54:58;6.80;99.90
20973;DHT22;10645;52.370;13.314;2023-12-28T02:57:24;6.90;99.90
20973;DHT22;10645;52.370;13.314;2023-12-28T02:59:50;6.90;99.90
20973;DHT22;10645;52.370;13.314;2023-12-28T03:02:17;7.10;99.90
20973;DHT22;10645;52.370;13.314;2023-12-28T03:04:43;7.10;99.90
20973;DHT22;10645;52.370;13.314;2023-12-28T03:07:09;7.10;99.90
20973;DHT22;10645;52.370;13.314;2023-12-28T03:09:35;7.20;99.90
20973;DHT22;10645;52.370;13.314;2023-12-28T03:12:04;7.20;99.90
20973;DHT22;10645;52.370;13.314;2023-12-28T03:14:30;7.30;99.90
20973;DHT22;10645;52.370;13.314;2023-12-28T03:16:57;7.40;99.90
20973;DHT22;10645;52.370;13.314;2023-12-28T03:19:23;7.40;99.90
20973;DHT22;10645;52.370;13.314;2023-12-28T03:21:49;7.50;99.90
20973;DHT22;10645;52.370;13.314;2023-12-28T03:24:15;7.50;99.90
20973;DHT22;10645;52.370;13.314;2023-12-28T03:26:41;7.60;99.90
20973;DHT22;10645;52.370;13.314;2023-12-28T03:29:08;7.60;99.90
20973;DHT22;10645;52.370;13.314;2023-12-28T03:31:39;7.60;99.90
20973;DHT22;10645;52.370;13.314;2023-12-28T03:34:04;7.70;99.90
20973;DHT22;10645;52.370;13.314;2023-12-28T03:36:31;7.80;99.90
20973;DHT22;10645;52.370;13.314;2023-12-28T03:38:57;7.90;99.90
20973;DHT22;10645;52.370;13.314;2023-12-28T03:41:23;7.90;99.90
20973;DHT22;10645;52.370;13.314;2023-12-28T03:43:49;7.80;99.90
20973;DHT22;10645;52.370;13.314;2023-12-28T03:46:15;7.80;99.90
20973;DHT22;10645;52.370;13.314;2023-12-28T03:48:41;7.70;99.90
20973;DHT22;10645;52.370;13.314;2023-12-28T03:51:07;7.70;99.90
20973;DHT22;10645;52.370;13.314;2023-12-28T03:53:39;7.70;99.90
20973;DHT22;10645;52.370;13.314;2023-12-28T03:56:05;7.70;99.90
20973;DHT22;10645;52.370;13.314;2023-12-28T03:58:31;7.70;99.90
20973;DHT22;10645;52.370;13.314;2023-12-28T04:00:57;7.60;99.90
20973;DHT22;10645;52.370;13.314;2023-12-28T04:03:23;7.50;99.90
20973;DHT22;10645;52.370;13.314;2023-12-28T04:05:50;7.60;99.90
20973;DHT22;10645;52.370;13.314;2023-12-28T04:08:16;7.50;99.90
20973;DHT22;10645;52.370;13.314;2023-12-28T04:10:42;7.50;99.90
20973;DHT22;10645;52.370;13.314;2023-12-28T04:13:08;7.50;99.90
20973;DHT22;10645;52.370;13.314;2023-12-28T04:15:34;7.50;99.90
20973;DHT22;10645;52.370;13.314;2023-12-28T04:18:00;7.60;99.90
20973;DHT22;10645;52.370;13.314;2023-12-28T04:20:28;7.60;99.90
20973;DHT22;10645;52.370;13.314;2023-12-28T04:22:54;7.70;99.90
20973;DHT22;10645;52.370;13.314;2023-12-28T04:25:20;7.70;99.90
20973;DHT22;10645;52.370;13.314;2023-12-28T04:27:46;7.70;99.90
20973;DHT22;10645;52.370;13.314;2023-12-28T04:30:12;7.70;99.90
20973;DHT22;10645;52.370;13.314;2023-12-28T04:32:39;7.80;99.90
20973;DHT22;10645;52.370;13.314;2023-12-28T04:35:05;7.80;99.90
20973;DHT22;10645;52.370;13.314;2023-12-28T04:37:32;7.80;99.90
20973;DHT22;10645;52.370;13.314;2023-12-28T04:39:58;7.90;99.90
20973;DHT22;10645;52.370;13.314;2023-12-28T04:42:24;7.90;99.90
20973;DHT22;10645;52.370;13.314;2023-12-28T04:44:51;7.90;99.90
20973;DHT22;10645;52.370;13.314;2023-12-28T04:47:17;7.90;99.90
20973;DHT22;10645;52.370;13.314;2023-12-28T04:49:43;8.00;99.90
20973;DHT22;10645;52.370;13.314;2023-12-28T04:52:09;8.00;99.90
20973;DHT22;10645;52.370;13.314;2023-12-28T04:54:35;8.00;99.90
20973;DHT22;10645;52.370;13.314;2023-12-28T04:57:03;8.00;99.90
20973;DHT22;10645;52.370;13.314;2023-12-28T04:59:29;8.00;99.90
20973;DHT22;10645;52.370;13.314;2023-12-28T05:01:55;8.00;99.90
20973;DHT22;10645;52.370;13.314;2023-12-28T05:04:22;8.00;99.90
20973;DHT22;10645;52.370;13.314;2023-12-28T05:06:49;7.90;99.90
20973;DHT22;10645;52.370;13.314;2023-12-28T05:09:15;8.00;99.90
20973;DHT22;10645;52.370;13.314;2023-12-28T05:11:41;8.00;99.90
20973;DHT22;10645;52.370;13.314;2023-12-28T05:14:07;8.00;99.90
20973;DHT22;10645;52.370;13.314;2023-12-28T05:16:33;8.20;99.90
20973;DHT22;10645;52.370;13.314;2023-12-28T05:18:59;8.20;99.90
20973;DHT22;10645;52.370;13.314;2023-12-28T05:21:25;8.20;99.90
20973;DHT22;10645;52.370;13.314;2023-12-28T05:23:52;8.20;99.90
20973;DHT22;10645;52.370;13.314;2023-12-28T05:26:18;8.20;99.90
20973;DHT22;10645;52.370;13.314;2023-12-28T05:28:44;8.20;99.90
20973;DHT22;10645;52.370;13.314;2023-12-28T05:31:10;8.20;99.90
20973;DHT22;10645;52.370;13.314;2023-12-28T05:33:36;8.20;99.90
20973;DHT22;10645;52.370;13.314;2023-12-28T05:36:02;8.10;99.90
20973;DHT22;10645;52.370;13.314;2023-12-28T05:38:28;8.10;99.90
20973;DHT22;10645;52.370;13.314;2023-12-28T05:40:54;8.10;99.90
20973;DHT22;10645;52.370;13.314;2023-12-28T05:43:20;8.00;99.90
20973;DHT22;10645;52.370;13.314;2023-12-28T05:45:48;8.00;99.90
20973;DHT22;10645;52.370;13.314;2023-12-28T05:48:14;8.00;99.90
20973;DHT22;10645;52.370;13.314;2023-12-28T05:50:40;7.90;99.90
20973;DHT22;10645;52.370;13.314;2023-12-28T05:53:06;8.00;99.90
20973;DHT22;10645;52.370;13.314;2023-12-28T05:55:33;7.90;99.90
20973;DHT22;10645;52.370;13.314;2023-12-28T05:58:00;8.00;99.90
20973;DHT22;10645;52.370;13.314;2023-12-28T06:00:26;8.00;99.90
20973;DHT22;10645;52.370;13.314;2023-12-28T06:02:52;8.00;99.90
20973;DHT22;10645;52.370;13.314;2023-12-28T06:05:18;8.00;99.90
20973;DHT22;10645;52.370;13.314;2023-12-28T06:07:44;8.00;99.90
20973;DHT22;10645;52.370;13.314;2023-12-28T06:10:11;7.90;99.90
20973;DHT22;10645;52.370;13.314;2023-12-28T06:12:37;7.90;99.90
20973;DHT22;10645;52.370;13.314;2023-12-28T06:15:04;7.90;99.90
20973;DHT22;10645;52.370;13.314;2023-12-28T06:17:30;7.90;99.90
20973;DHT22;10645;52.370;13.314;2023-12-28T06:19:56;8.00;99.90
20973;DHT22;10645;52.370;13.314;2023-12-28T06:22:22;7.90;99.90
20973;DHT22;10645;52.370;13.314;2023-12-28T06:24:56;7.90;99.90
20973;DHT22;10645;52.370;13.314;2023-12-28T06:27:22;7.90;99.90
20973;DHT22;10645;52.370;13.314;2023-12-28T06:29:52;7.90;99.90
20973;DHT22;10645;52.370;13.314;2023-12-28T06:32:18;7.90;99.90
20973;DHT22;10645;52.370;13.314;2023-12-28T06:34:44;7.90;99.90
20973;DHT22;10645;52.370;13.314;2023-12-28T06:37:10;7.90;99.90
20973;DHT22;10645;52.370;13.314;2023-12-28T06:39:36;7.80;99.90
20973;DHT22;10645;52.370;13.314;2023-12-28T06:42:02;7.80;99.90
20973;DHT22;10645;52.370;13.314;2023-12-28T06:44:28;7.80;99.90
20973;DHT22;10645;52.370;13.314;2023-12-28T06:46:54;7.80;99.90
20973;DHT22;10645;52.370;13.314;2023-12-28T06:49:21;7.70;99.90
20973;DHT22;10645;52.370;13.314;2023-12-28T06:51:47;7.70;99.90
20973;DHT22;10645;52.370;13.314;2023-12-28T06:54:13;7.70;99.90
20973;DHT22;10645;52.370;13.314;2023-12-28T06:56:40;7.70;99.90
20973;DHT22;10645;52.370;13.314;2023-12-28T06:59:07;7.60;99.90
20973;DHT22;10645;52.370;13.314;2023-12-28T07:01:33;7.60;99.90
20973;DHT22;10645;52.370;13.314;2023-12-28T07:03:59;7.60;99.90
20973;DHT22;10645;52.370;13.314;2023-12-28T07:06:25;7.70;99.90
20973;DHT22;10645;52.370;13.314;2023-12-28T07:08:52;7.60;99.90
20973;DHT22;10645;52.370;13.314;2023-12-28T07:11:18;7.70;99.90
20973;DHT22;10645;52.370;13.314;2023-12-28T07:13:44;7.70;99.90
20973;DHT22;10645;52.370;13.314;2023-12-28T07:16:10;7.60;99.90
20973;DHT22;10645;52.370;13.314;2023-12-28T07:18:36;7.60;99.90
20973;DHT22;10645;52.370;13.314;2023-12-28T07:21:03;7.50;99.90
20973;DHT22;10645;52.370;13.314;2023-12-28T07:23:29;7.50;99.90
20973;DHT22;10645;52.370;13.314;2023-12-28T07:25:55;7.50;99.90
20973;DHT22;10645;52.370;13.314;2023-12-28T07:28:21;7.60;99.90
20973;DHT22;10645;52.370;13.314;2023-12-28T07:30:48;7.60;99.90
20973;DHT22;10645;52.370;13.314;2023-12-28T07:33:14;7.60;99.90
20973;DHT22;10645;52.370;13.314;2023-12-28T07:35:40;7.70;99.90
20973;DHT22;10645;52.370;13.314;2023-12-28T07:38:06;7.60;99.90
20973;DHT22;10645;52.370;13.314;2023-12-28T07:40:32;7.60;99.90
20973;DHT22;10645;52.370;13.314;2023-12-28T07:42:59;7.60;99.90
20973;DHT22;10645;52.370;13.314;2023-12-28T07:45:26;7.60;99.90
20973;DHT22;10645;52.370;13.314;2023-12-28T07:47:53;7.60;99.90
20973;DHT22;10645;52.370;13.314;2023-12-28T07:50:19;7.70;99.90
20973;DHT22;10645;52.370;13.314;2023-12-28T07:52:46;7.60;99.90
20973;DHT22;10645;52.370;13.314;2023-12-28T07:55:13;7.60;99.90
20973;DHT22;10645;52.370;13.314;2023-12-28T07:57:39;7.60;99.90
20973;DHT22;10645;52.370;13.314;2023-12-28T08:00:06;7.60;99.90
20973;DHT22;10645;52.370;13.314;2023-12-28T08:02:33;7.60;99.90
20973;DHT22;10645;52.370;13.314;2023-12-28T08:04:59;7.70;99.90
20973;DHT22;10645;52.370;13.314;2023-12-28T08:07:25;7.70;99.90
20973;DHT22;10645;52.370;13.314;2023-12-28T08:09:51;7.70;99.90
20973;DHT22;10645;52.370;13.314;2023-12-28T08:12:17;7.70;99.90
20973;DHT22;10645;52.370;13.314;2023-12-28T08:14:44;7.70;99.90
20973;DHT22;10645;52.370;13.314;2023-12-28T08:17:10;7.80;99.90
20973;DHT22;10645;52.370;13.314;2023-12-28T08:19:36;7.80;99.90
20973;DHT22;10645;52.370;13.314;2023-12-28T08:22:02;7.80;99.90
20973;DHT22;10645;52.370;13.314;2023-12-28T08:24:28;7.70;99.90
20973;DHT22;10645;52.370;13.314;2023-12-28T08:26:55;7.70;99.90
20973;DHT22;10645;52.370;13.314;2023-12-28T08:29:25;7.70;99.90
20973;DHT22;10645;52.370;13.314;2023-12-28T08:31:52;7.70;99.90
20973;DHT22;10645;52.370;13.314;2023-12-28T08:34:18;7.80;99.90
20973;DHT22;10645;52.370;13.314;2023-12-28T08:36:44;7.70;99.90
20973;DHT22;10645;52.370;13.314;2023-12-28T08:39:10;7.70;99.90
20973;DHT22;10645;52.370;13.314;2023-12-28T08:41:36;7.80;99.90
20973;DHT22;10645;52.370;13.314;2023-12-28T08:44:02;7.70;99.90
20973;DHT22;10645;52.370;13.314;2023-12-28T08:46:29;7.80;99.90
20973;DHT22;10645;52.370;13.314;2023-12-28T08:48:55;7.70;99.90
20973;DHT22;10645;52.370;13.314;2023-12-28T08:51:21;7.70;99.90
20973;DHT22;10645;52.370;13.314;2023-12-28T08:53:48;7.70;99.90
20973;DHT22;10645;52.370;13.314;2023-12-28T08:56:19;7.70;99.90
20973;DHT22;10645;52.370;13.314;2023-12-28T08:58:46;7.80;99.90
20973;DHT22;10645;52.370;13.314;2023-12-28T09:01:20;7.80;99.90
20973;DHT22;10645;52.370;13.314;2023-12-28T09:03:51;7.90;99.90
20973;DHT22;10645;52.370;13.314;2023-12-28T09:06:18;7.90;99.90
20973;DHT22;10645;52.370;13.314;2023-12-28T09:08:45;7.90;99.90
20973;DHT22;10645;52.370;13.314;2023-12-28T09:11:12;7.90;99.90
20973;DHT22;10645;52.370;13.314;2023-12-28T09:13:39;8.00;99.90
20973;DHT22;10645;52.370;13.314;2023-12-28T09:16:06;8.00;99.90
20973;DHT22;10645;52.370;13.314;2023-12-28T09:18:33;8.10;99.90
20973;DHT22;10645;52.370;13.314;2023-12-28T09:20:59;8.10;99.90
20973;DHT22;10645;52.370;13.314;2023-12-28T09:23:25;8.20;99.90
20973;DHT22;10645;52.370;13.314;2023-12-28T09:25:51;8.20;99.90
20973;DHT22;10645;52.370;13.314;2023-12-28T09:28:17;8.20;99.90
20973;DHT22;10645;52.370;13.314;2023-12-28T09:30:43;8.20;99.90
20973;DHT22;10645;52.370;13.314;2023-12-28T09:33:09;8.20;99.90
20973;DHT22;10645;52.370;13.314;2023-12-28T09:35:35;8.20;99.90
20973;DHT22;10645;52.370;13.314;2023-12-28T09:38:02;8.20;99.90
20973;DHT22;10645;52.370;13.314;2023-12-28T09:40:28;8.20;99.90
20973;DHT22;10645;52.370;13.314;2023-12-28T09:43:07;8.20;99.90
20973;DHT22;10645;52.370;13.314;2023-12-28T09:45:35;8.20;99.90
20973;DHT22;10645;52.370;13.314;2023-12-28T09:48:02;8.20;99.90
20973;DHT22;10645;52.370;13.314;2023-12-28T09:50:28;8.20;99.90
20973;DHT22;10645;52.370;13.314;2023-12-28T09:52:55;8.20;99.90
20973;DHT22;10645;52.370;13.314;2023-12-28T09:55:21;8.20;99.90
20973;DHT22;10645;52.370;13.314;2023-12-28T09:57:48;8.20;99.90
20973;DHT22;10645;52.370;13.314;2023-12-28T10:00:15;8.20;99.90
20973;DHT22;10645;52.370;13.314;2023-12-28T10:02:44;8.20;99.90
20973;DHT22;10645;52.370;13.314;2023-12-28T10:05:16;8.20;99.90
20973;DHT22;10645;52.370;13.314;2023-12-28T10:07:44;8.20;99.90
20973;DHT22;10645;52.370;13.314;2023-12-28T10:10:11;8.20;99.90
20973;DHT22;10645;52.370;13.314;2023-12-28T10:12:37;8.20;99.90
20973;DHT22;10645;52.370;13.314;2023-12-28T10:15:05;8.30;99.90
20973;DHT22;10645;52.370;13.314;2023-12-28T10:17:34;8.30;99.90
20973;DHT22;10645;52.370;13.314;2023-12-28T10:20:03;8.30;99.90
20973;DHT22;10645;52.370;13.314;2023-12-28T10:22:31;8.40;99.90
20973;DHT22;10645;52.370;13.314;2023-12-28T10:25:03;8.50;99.90
20973;DHT22;10645;52.370;13.314;2023-12-28T10:27:30;8.60;99.90
20973;DHT22;10645;52.370;13.314;2023-12-28T10:29:56;8.60;99.90
20973;DHT22;10645;52.370;13.314;2023-12-28T10:32:23;8.60;99.90
20973;DHT22;10645;52.370;13.314;2023-12-28T10:34:53;8.60;99.90
20973;DHT22;10645;52.370;13.314;2023-12-28T10:37:21;8.70;99.90
20973;DHT22;10645;52.370;13.314;2023-12-28T10:39:48;8.80;99.90
20973;DHT22;10645;52.370;13.314;2023-12-28T10:44:55;9.00;99.90
20973;DHT22;10645;52.370;13.314;2023-12-28T10:47:25;9.00;99.90
20973;DHT22;10645;52.370;13.314;2023-12-28T10:49:53;9.10;99.90
20973;DHT22;10645;52.370;13.314;2023-12-28T10:52:27;9.20;99.90
20973;DHT22;10645;52.370;13.314;2023-12-28T10:55:29;9.20;99.90
20973;DHT22;10645;52.370;13.314;2023-12-28T10:58:09;9.20;99.90
20973;DHT22;10645;52.370;13.314;2023-12-28T11:00:42;9.30;99.90
20973;DHT22;10645;52.370;13.314;2023-12-28T11:03:11;9.30;99.90
20973;DHT22;10645;52.370;13.314;2023-12-28T11:05:43;9.40;99.90
20973;DHT22;10645;52.370;13.314;2023-12-28T11:08:11;9.40;99.90
20973;DHT22;10645;52.370;13.314;2023-12-28T11:10:39;9.50;99.90
20973;DHT22;10645;52.370;13.314;2023-12-28T11:13:07;9.60;99.90
20973;DHT22;10645;52.370;13.314;2023-12-28T11:15:36;9.60;99.90
20973;DHT22;10645;52.370;13.314;2023-12-28T11:18:04;9.70;99.90
20973;DHT22;10645;52.370;13.314;2023-12-28T11:20:30;9.90;99.90
20973;DHT22;10645;52.370;13.314;2023-12-28T11:22:57;9.90;99.90
20973;DHT22;10645;52.370;13.314;2023-12-28T11:25:24;9.90;99.90
20973;DHT22;10645;52.370;13.314;2023-12-28T11:27:56;10.10;99.90
20973;DHT22;10645;52.370;13.314;2023-12-28T11:30:26;10.10;99.90
20973;DHT22;10645;52.370;13.314;2023-12-28T11:32:56;10.00;99.90
20973;DHT22;10645;52.370;13.314;2023-12-28T11:35:23;9.80;99.90
20973;DHT22;10645;52.370;13.314;2023-12-28T11:37:51;9.70;99.90
20973;DHT22;10645;52.370;13.314;2023-12-28T11:40:19;9.60;99.90
20973;DHT22;10645;52.370;13.314;2023-12-28T11:42:52;9.40;99.90
20973;DHT22;10645;52.370;13.314;2023-12-28T11:45:21;9.50;99.90
20973;DHT22;10645;52.370;13.314;2023-12-28T11:47:59;9.40;99.90
20973;DHT22;10645;52.370;13.314;2023-12-28T11:50:26;9.30;99.90
20973;DHT22;10645;52.370;13.314;2023-12-28T11:52:52;9.30;99.90
20973;DHT22;10645;52.370;13.314;2023-12-28T11:55:22;9.40;99.90
20973;DHT22;10645;52.370;13.314;2023-12-28T11:57:49;9.60;99.90
20973;DHT22;10645;52.370;13.314;2023-12-28T12:00:15;9.70;99.90
20973;DHT22;10645;52.370;13.314;2023-12-28T12:02:44;9.80;99.90
20973;DHT22;10645;52.370;13.314;2023-12-28T12:05:14;10.00;99.90
20973;DHT22;10645;52.370;13.314;2023-12-28T12:07:40;10.00;99.90
20973;DHT22;10645;52.370;13.314;2023-12-28T12:10:07;10.10;99.90
20973;DHT22;10645;52.370;13.314;2023-12-28T12:12:33;10.20;99.90
20973;DHT22;10645;52.370;13.314;2023-12-28T12:15:00;10.30;99.90
20973;DHT22;10645;52.370;13.314;2023-12-28T12:17:26;10.40;99.90
20973;DHT22;10645;52.370;13.314;2023-12-28T12:19:52;10.40;99.90
20973;DHT22;10645;52.370;13.314;2023-12-28T12:22:21;10.50;99.90
20973;DHT22;10645;52.370;13.314;2023-12-28T12:24:48;10.50;99.90
20973;DHT22;10645;52.370;13.314;2023-12-28T12:27:15;10.50;99.90
20973;DHT22;10645;52.370;13.314;2023-12-28T12:29:41;10.50;99.90
20973;DHT22;10645;52.370;13.314;2023-12-28T12:32:07;10.60;99.90
20973;DHT22;10645;52.370;13.314;2023-12-28T12:34:33;10.60;99.90
20973;DHT22;10645;52.370;13.314;2023-12-28T12:36:59;10.60;99.90
20973;DHT22;10645;52.370;13.314;2023-12-28T12:39:26;10.70;99.90
20973;DHT22;10645;52.370;13.314;2023-12-28T12:41:52;10.70;99.90
20973;DHT22;10645;52.370;13.314;2023-12-28T12:44:21;10.60;99.90
20973;DHT22;10645;52.370;13.314;2023-12-28T12:46:48;10.60;99.90
20973;DHT22;10645;52.370;13.314;2023-12-28T12:49:16;10.50;99.90
20973;DHT22;10645;52.370;13.314;2023-12-28T12:51:42;10.50;99.90
20973;DHT22;10645;52.370;13.314;2023-12-28T12:54:08;10.40;99.90
20973;DHT22;10645;52.370;13.314;2023-12-28T12:56:37;10.30;99.90
20973;DHT22;10645;52.370;13.314;2023-12-28T12:59:05;10.20;99.90
20973;DHT22;10645;52.370;13.314;2023-12-28T13:01:31;10.20;99.90
20973;DHT22;10645;52.370;13.314;2023-12-28T13:03:57;10.20;99.90
20973;DHT22;10645;52.370;13.314;2023-12-28T13:06:23;10.10;99.90
20973;DHT22;10645;52.370;13.314;2023-12-28T13:08:49;10.00;99.90
20973;DHT22;10645;52.370;13.314;2023-12-28T13:11:15;10.00;99.90
20973;DHT22;10645;52.370;13.314;2023-12-28T13:13:41;10.00;99.90
20973;DHT22;10645;52.370;13.314;2023-12-28T13:16:07;9.90;99.90
20973;DHT22;10645;52.370;13.314;2023-12-28T13:18:34;10.00;99.90
20973;DHT22;10645;52.370;13.314;2023-12-28T13:21:01;10.00;99.90
20973;DHT22;10645;52.370;13.314;2023-12-28T13:23:27;9.90;99.90
20973;DHT22;10645;52.370;13.314;2023-12-28T13:25:54;9.90;99.90
20973;DHT22;10645;52.370;13.314;2023-12-28T13:28:20;9.90;99.90
20973;DHT22;10645;52.370;13.314;2023-12-28T13:30:46;9.90;99.90
20973;DHT22;10645;52.370;13.314;2023-12-28T13:33:13;9.90;99.90
20973;DHT22;10645;52.370;13.314;2023-12-28T13:35:39;9.80;99.90
20973;DHT22;10645;52.370;13.314;2023-12-28T13:38:05;9.80;99.90
20973;DHT22;10645;52.370;13.314;2023-12-28T13:40:31;9.90;99.90
20973;DHT22;10645;52.370;13.314;2023-12-28T13:42:57;9.90;99.90
20973;DHT22;10645;52.370;13.314;2023-12-28T13:45:23;9.90;99.90
20973;DHT22;10645;52.370;13.314;2023-12-28T13:47:50;9.90;99.90
20973;DHT22;10645;52.370;13.314;2023-12-28T13:50:16;9.90;99.90
20973;DHT22;10645;52.370;13.314;2023-12-28T13:52:42;9.90;99.90
20973;DHT22;10645;52.370;13.314;2023-12-28T13:55:08;9.90;99.90
20973;DHT22;10645;52.370;13.314;2023-12-28T13:57:35;10.00;99.90
20973;DHT22;10645;52.370;13.314;2023-12-28T14:00:01;10.00;99.90
20973;DHT22;10645;52.370;13.314;2023-12-28T14:02:38;10.00;99.90
20973;DHT22;10645;52.370;13.314;2023-12-28T14:05:06;10.00;99.90
20973;DHT22;10645;52.370;13.314;2023-12-28T14:07:32;10.00;99.90
20973;DHT22;10645;52.370;13.314;2023-12-28T14:09:59;10.00;99.90
20973;DHT22;10645;52.370;13.314;2023-12-28T14:12:25;9.90;99.90
20973;DHT22;10645;52.370;13.314;2023-12-28T14:14:51;9.90;99.90
20973;DHT22;10645;52.370;13.314;2023-12-28T14:17:17;9.90;99.90
20973;DHT22;10645;52.370;13.314;2023-12-28T14:19:46;9.80;99.90
20973;DHT22;10645;52.370;13.314;2023-12-28T14:22:14;9.80;99.90
20973;DHT22;10645;52.370;13.314;2023-12-28T14:24:40;9.80;99.90
20973;DHT22;10645;52.370;13.314;2023-12-28T14:27:07;9.80;99.90
20973;DHT22;10645;52.370;13.314;2023-12-28T14:29:33;9.70;99.90
20973;DHT22;10645;52.370;13.314;2023-12-28T14:31:59;9.60;99.90
20973;DHT22;10645;52.370;13.314;2023-12-28T14:34:26;9.60;99.90
20973;DHT22;10645;52.370;13.314;2023-12-28T14:36:53;9.60;99.90
20973;DHT22;10645;52.370;13.314;2023-12-28T14:39:19;9.50;99.90
20973;DHT22;10645;52.370;13.314;2023-12-28T14:41:46;9.50;99.90
20973;DHT22;10645;52.370;13.314;2023-12-28T14:44:12;9.40;99.90
20973;DHT22;10645;52.370;13.314;2023-12-28T14:46:38;9.30;99.90
20973;DHT22;10645;52.370;13.314;2023-12-28T14:49:05;9.30;99.90
20973;DHT22;10645;52.370;13.314;2023-12-28T14:51:31;9.30;99.90
20973;DHT22;10645;52.370;13.314;2023-12-28T14:53:57;9.20;99.90
20973;DHT22;10645;52.370;13.314;2023-12-28T14:56:24;9.20;99.90
20973;DHT22;10645;52.370;13.314;2023-12-28T14:58:50;9.10;99.90
20973;DHT22;10645;52.370;13.314;2023-12-28T15:01:17;9.10;99.90
20973;DHT22;10645;52.370;13.314;2023-12-28T15:03:46;9.00;99.90
20973;DHT22;10645;52.370;13.314;2023-12-28T15:06:12;9.00;99.90
20973;DHT22;10645;52.370;13.314;2023-12-28T15:08:38;9.00;99.90
20973;DHT22;10645;52.370;13.314;2023-12-28T15:11:05;9.00;99.90
20973;DHT22;10645;52.370;13.314;2023-12-28T15:13:34;8.90;99.90
20973;DHT22;10645;52.370;13.314;2023-12-28T15:16:00;8.90;99.90
20973;DHT22;10645;52.370;13.314;2023-12-28T15:18:27;8.80;99.90
20973;DHT22;10645;52.370;13.314;2023-12-28T15:20:53;8.80;99.90
20973;DHT22;10645;52.370;13.314;2023-12-28T15:23:20;8.70;99.90
20973;DHT22;10645;52.370;13.314;2023-12-28T15:25:47;8.80;99.90
20973;DHT22;10645;52.370;13.314;2023-12-28T15:28:14;8.70;99.90
20973;DHT22;10645;52.370;13.314;2023-12-28T15:30:40;8.70;99.90
20973;DHT22;10645;52.370;13.314;2023-12-28T15:33:06;8.70;99.90